sensor_id;sensor_type;location;lat;lon;timestamp;temperature;humidity
3705;DHT22;1868;48.918;9.438;2023-12-22T00:02:03;6.70;97.40
3705;DHT22;1868;48.918;9.438;2023-12-22T00:04:33;6.70;97.40
3705;DHT22;1868;48.918;9.438;2023-12-22T00:07:03;6.70;97.40
3705;DHT22;1868;48.918;9.438;2023-12-22T00:09:32;6.70;97.40
3705;DHT22;1868;48.918;9.438;2023-12-22T00:12:04;6.70;97.40
3705;DHT22;1868;48.918;9.438;2023-12-22T00:14:34;6.70;97.40
3705;DHT22;1868;48.918;9.438;2023-12-22T00:17:04;6.70;97.40
3705;DHT22;1868;48.918;9.438;2023-12-22T00:19:33;6.70;97.40
3705;DHT22;1868;48.918;9.438;2023-12-22T00:22:03;6.70;97.40
3705;DHT22;1868;48.918;9.438;2023-12-22T00:24:33;6.70;97.40
3705;DHT22;1868;48.918;9.438;2023-12-22T00:27:04;6.60;97.40
3705;DHT22;1868;48.918;9.438;2023-12-22T00:29:33;6.50;97.40
3705;DHT22;1868;48.918;9.438;2023-12-22T00:32:05;6.30;97.40
3705;DHT22;1868;48.918;9.438;2023-12-22T00:34:37;6.10;97.40
3705;DHT22;1868;48.918;9.438;2023-12-22T00:37:07;6.00;97.40
3705;DHT22;1868;48.918;9.438;2023-12-22T00:39:36;5.90;97.40
3705;DHT22;1868;48.918;9.438;2023-12-22T00:42:08;5.80;97.40
3705;DHT22;1868;48.918;9.438;2023-12-22T00:44:39;5.80;97.40
3705;DHT22;1868;48.918;9.438;2023-12-22T00:47:08;5.70;97.40
3705;DHT22;1868;48.918;9.438;2023-12-22T00:49:36;5.60;97.40
3705;DHT22;1868;48.918;9.438;2023-12-22T00:52:06;5.60;97.40
3705;DHT22;1868;48.918;9.438;2023-12-22T00:54:36;5.60;97.40
3705;DHT22;1868;48.918;9.438;2023-12-22T00:57:05;5.60;97.40
3705;DHT22;1868;48.918;9.438;2023-12-22T00:59:35;5.50;97.40
3705;DHT22;1868;48.918;9.438;2023-12-22T01:02:04;5.50;97.40
3705;DHT22;1868;48.918;9.438;2023-12-22T01:04:34;5.40;97.40
3705;DHT22;1868;48.918;9.438;2023-12-22T01:07:04;5.40;97.40
3705;DHT22;1868;48.918;9.438;2023-12-22T01:09:33;5.40;97.40
3705;DHT22;1868;48.918;9.438;2023-12-22T01:12:05;5.30;97.40
3705;DHT22;1868;48.918;9.438;2023-12-22T01:14:36;5.20;97.40
3705;DHT22;1868;48.918;9.438;2023-12-22T01:17:05;5.20;97.40
3705;DHT22;1868;48.918;9.438;2023-12-22T01:19:34;5.20;97.40
3705;DHT22;1868;48.918;9.438;2023-12-22T01:22:03;5.20;97.40
3705;DHT22;1868;48.918;9.438;2023-12-22T01:24:32;5.20;97.40
3705;DHT22;1868;48.918;9.438;2023-12-22T01:27:01;5.20;97.40
3705;DHT22;1868;48.918;9.438;2023-12-22T01:29:31;5.20;97.40
3705;DHT22;1868;48.918;9.438;2023-12-22T01:32:01;5.20;97.40
3705;DHT22;1868;48.918;9.438;2023-12-22T01:34:30;5.20;97.40
3705;DHT22;1868;48.918;9.438;2023-12-22T01:37:02;5.30;97.40
3705;DHT22;1868;48.918;9.438;2023-12-22T01:39:32;5.20;97.40
3705;DHT22;1868;48.918;9.438;2023-12-22T01:42:02;5.20;97.40
3705;DHT22;1868;48.918;9.438;2023-12-22T01:44:32;5.20;97.40
3705;DHT22;1868;48.918;9.438;2023-12-22T01:47:02;5.20;97.40
3705;DHT22;1868;48.918;9.438;2023-12-22T01:49:32;5.20;97.40
3705;DHT22;1868;48.918;9.438;2023-12-22T01:52:01;5.20;97.40
3705;DHT22;1868;48.918;9.438;2023-12-22T01:54:32;5.20;97.40
3705;DHT22;1868;48.918;9.438;2023-12-22T01:57:02;5.20;97.40
3705;DHT22;1868;48.918;9.438;2023-12-22T01:59:34;5.30;97.40
3705;DHT22;1868;48.918;9.438;2023-12-22T02:02:08;5.40;97.40
3705;DHT22;1868;48.918;9.438;2023-12-22T02:04:38;5.40;97.40
3705;DHT22;1868;48.918;9.438;2023-12-22T02:07:08;5.50;97.40
3705;DHT22;1868;48.918;9.438;2023-12-22T02:09:37;5.50;97.40
3705;DHT22;1868;48.918;9.438;2023-12-22T02:12:08;5.60;97.40
3705;DHT22;1868;48.918;9.438;2023-12-22T02:14:37;5.70;97.40
3705;DHT22;1868;48.918;9.438;2023-12-22T02:17:15;5.80;97.40
3705;DHT22;1868;48.918;9.438;2023-12-22T02:19:50;5.90;97.40
3705;DHT22;1868;48.918;9.438;2023-12-22T02:22:21;6.10;97.40
3705;DHT22;1868;48.918;9.438;2023-12-22T02:24:52;6.20;97.40
3705;DHT22;1868;48.918;9.438;2023-12-22T02:27:28;6.20;97.40
3705;DHT22;1868;48.918;9.438;2023-12-22T02:30:03;6.20;97.40
3705;DHT22;1868;48.918;9.438;2023-12-22T02:32:38;6.10;97.40
3705;DHT22;1868;48.918;9.438;2023-12-22T02:35:13;6.00;97.40
3705;DHT22;1868;48.918;9.438;2023-12-22T02:37:45;5.90;97.40
3705;DHT22;1868;48.918;9.438;2023-12-22T02:40:18;5.90;97.40
3705;DHT22;1868;48.918;9.438;2023-12-22T02:42:49;5.90;97.40
3705;DHT22;1868;48.918;9.438;2023-12-22T02:45:19;5.90;97.40
3705;DHT22;1868;48.918;9.438;2023-12-22T02:47:48;6.00;97.40
3705;DHT22;1868;48.918;9.438;2023-12-22T02:50:17;6.20;97.40
3705;DHT22;1868;48.918;9.438;2023-12-22T02:52:47;6.30;97.40
3705;DHT22;1868;48.918;9.438;2023-12-22T02:55:18;6.60;97.40
3705;DHT22;1868;48.918;9.438;2023-12-22T02:57:47;6.80;97.40
3705;DHT22;1868;48.918;9.438;2023-12-22T03:00:16;6.90;97.40
3705;DHT22;1868;48.918;9.438;2023-12-22T03:02:47;7.20;97.40
3705;DHT22;1868;48.918;9.438;2023-12-22T03:05:15;7.30;97.40
3705;DHT22;1868;48.918;9.438;2023-12-22T03:07:48;7.40;97.40
3705;DHT22;1868;48.918;9.438;2023-12-22T03:10:19;7.50;97.40
3705;DHT22;1868;48.918;9.438;2023-12-22T03:12:49;7.60;97.40
3705;DHT22;1868;48.918;9.438;2023-12-22T03:15:19;7.60;97.40
3705;DHT22;1868;48.918;9.438;2023-12-22T03:17:49;7.70;97.40
3705;DHT22;1868;48.918;9.438;2023-12-22T03:20:20;7.60;97.40
3705;DHT22;1868;48.918;9.438;2023-12-22T03:22:50;7.70;97.40
3705;DHT22;1868;48.918;9.438;2023-12-22T03:25:21;7.70;97.40
3705;DHT22;1868;48.918;9.438;2023-12-22T03:27:51;7.80;97.40
3705;DHT22;1868;48.918;9.438;2023-12-22T03:30:20;7.70;97.40
3705;DHT22;1868;48.918;9.438;2023-12-22T03:32:49;7.70;97.40
3705;DHT22;1868;48.918;9.438;2023-12-22T03:35:18;7.70;97.40
3705;DHT22;1868;48.918;9.438;2023-12-22T03:37:49;7.70;97.40
3705;DHT22;1868;48.918;9.438;2023-12-22T03:40:18;7.80;97.40
3705;DHT22;1868;48.918;9.438;2023-12-22T03:42:50;7.90;97.40
3705;DHT22;1868;48.918;9.438;2023-12-22T03:45:19;7.90;97.40
3705;DHT22;1868;48.918;9.438;2023-12-22T03:47:48;7.90;97.40
3705;DHT22;1868;48.918;9.438;2023-12-22T03:50:18;8.00;97.40
3705;DHT22;1868;48.918;9.438;2023-12-22T03:52:46;8.00;97.40
3705;DHT22;1868;48.918;9.438;2023-12-22T03:55:15;8.00;97.40
3705;DHT22;1868;48.918;9.438;2023-12-22T03:57:46;8.00;97.40
3705;DHT22;1868;48.918;9.438;2023-12-22T04:00:17;8.00;97.40
3705;DHT22;1868;48.918;9.438;2023-12-22T04:02:47;8.10;97.40
3705;DHT22;1868;48.918;9.438;2023-12-22T04:05:17;8.10;97.40
3705;DHT22;1868;48.918;9.438;2023-12-22T04:07:48;8.20;97.40
3705;DHT22;1868;48.918;9.438;2023-12-22T04:10:19;8.10;97.40
3705;DHT22;1868;48.918;9.438;2023-12-22T04:12:49;8.20;97.40
3705;DHT22;1868;48.918;9.438;2023-12-22T04:15:18;8.20;97.40
3705;DHT22;1868;48.918;9.438;2023-12-22T04:17:48;8.20;97.40
3705;DHT22;1868;48.918;9.438;2023-12-22T04:20:19;8.20;97.40
3705;DHT22;1868;48.918;9.438;2023-12-22T04:22:48;8.20;97.40
3705;DHT22;1868;48.918;9.438;2023-12-22T04:25:17;8.00;97.40
3705;DHT22;1868;48.918;9.438;2023-12-22T04:27:45;7.80;97.40
3705;DHT22;1868;48.918;9.438;2023-12-22T04:30:16;7.70;97.40
3705;DHT22;1868;48.918;9.438;2023-12-22T04:32:45;7.60;97.40
3705;DHT22;1868;48.918;9.438;2023-12-22T04:35:15;7.50;97.40
3705;DHT22;1868;48.918;9.438;2023-12-22T04:37:44;7.20;97.40
3705;DHT22;1868;48.918;9.438;2023-12-22T04:40:15;7.10;97.40
3705;DHT22;1868;48.918;9.438;2023-12-22T04:42:44;7.00;97.40
3705;DHT22;1868;48.918;9.438;2023-12-22T04:45:15;6.90;97.40
3705;DHT22;1868;48.918;9.438;2023-12-22T04:47:45;6.80;97.40
3705;DHT22;1868;48.918;9.438;2023-12-22T04:50:15;6.90;97.40
3705;DHT22;1868;48.918;9.438;2023-12-22T04:52:45;6.90;97.40
3705;DHT22;1868;48.918;9.438;2023-12-22T04:55:14;7.00;97.40
3705;DHT22;1868;48.918;9.438;2023-12-22T04:57:43;6.90;97.40
3705;DHT22;1868;48.918;9.438;2023-12-22T05:00:13;7.00;97.40
3705;DHT22;1868;48.918;9.438;2023-12-22T05:02:44;7.00;97.40
3705;DHT22;1868;48.918;9.438;2023-12-22T05:05:13;7.20;97.40
3705;DHT22;1868;48.918;9.438;2023-12-22T05:07:42;7.30;97.40
3705;DHT22;1868;48.918;9.438;2023-12-22T05:10:12;7.40;97.40
3705;DHT22;1868;48.918;9.438;2023-12-22T05:12:40;7.40;97.40
3705;DHT22;1868;48.918;9.438;2023-12-22T05:15:10;7.50;97.40
3705;DHT22;1868;48.918;9.438;2023-12-22T05:17:40;7.60;97.40
3705;DHT22;1868;48.918;9.438;2023-12-22T05:20:10;7.50;97.40
3705;DHT22;1868;48.918;9.438;2023-12-22T05:22:42;7.60;97.40
3705;DHT22;1868;48.918;9.438;2023-12-22T05:25:13;7.50;97.40
3705;DHT22;1868;48.918;9.438;2023-12-22T05:27:41;7.60;97.40
3705;DHT22;1868;48.918;9.438;2023-12-22T05:30:12;7.60;97.40
3705;DHT22;1868;48.918;9.438;2023-12-22T05:32:44;7.70;97.40
3705;DHT22;1868;48.918;9.438;2023-12-22T05:35:13;7.70;97.40
3705;DHT22;1868;48.918;9.438;2023-12-22T05:37:43;7.70;97.40
3705;DHT22;1868;48.918;9.438;2023-12-22T05:40:12;7.70;97.40
3705;DHT22;1868;48.918;9.438;2023-12-22T05:42:42;7.70;97.40
3705;DHT22;1868;48.918;9.438;2023-12-22T05:45:11;7.70;97.40
3705;DHT22;1868;48.918;9.438;2023-12-22T05:47:43;7.70;97.40
3705;DHT22;1868;48.918;9.438;2023-12-22T05:50:13;7.50;97.40
3705;DHT22;1868;48.918;9.438;2023-12-22T05:52:42;7.40;97.40
3705;DHT22;1868;48.918;9.438;2023-12-22T05:55:12;7.30;97.40
3705;DHT22;1868;48.918;9.438;2023-12-22T05:57:41;7.30;97.40
3705;DHT22;1868;48.918;9.438;2023-12-22T06:00:11;7.30;97.40
3705;DHT22;1868;48.918;9.438;2023-12-22T06:02:44;7.40;97.40
3705;DHT22;1868;48.918;9.438;2023-12-22T06:05:13;7.50;97.40
3705;DHT22;1868;48.918;9.438;2023-12-22T06:07:47;7.50;97.40
3705;DHT22;1868;48.918;9.438;2023-12-22T06:10:17;7.60;97.40
3705;DHT22;1868;48.918;9.438;2023-12-22T06:12:46;7.70;97.40
3705;DHT22;1868;48.918;9.438;2023-12-22T06:15:15;7.70;97.40
3705;DHT22;1868;48.918;9.438;2023-12-22T06:17:45;7.70;97.40
3705;DHT22;1868;48.918;9.438;2023-12-22T06:20:15;7.70;97.40
3705;DHT22;1868;48.918;9.438;2023-12-22T06:22:43;7.70;97.40
3705;DHT22;1868;48.918;9.438;2023-12-22T06:25:12;7.80;97.40
3705;DHT22;1868;48.918;9.438;2023-12-22T06:27:45;7.80;97.40
3705;DHT22;1868;48.918;9.438;2023-12-22T06:30:14;7.90;97.40
3705;DHT22;1868;48.918;9.438;2023-12-22T06:32:45;8.10;97.40
3705;DHT22;1868;48.918;9.438;2023-12-22T06:35:14;8.10;97.40
3705;DHT22;1868;48.918;9.438;2023-12-22T06:37:44;8.20;97.40
3705;DHT22;1868;48.918;9.438;2023-12-22T06:40:13;8.20;97.40
3705;DHT22;1868;48.918;9.438;2023-12-22T06:42:42;8.10;97.40
3705;DHT22;1868;48.918;9.438;2023-12-22T06:45:11;8.10;97.40
3705;DHT22;1868;48.918;9.438;2023-12-22T06:47:42;8.10;97.40
3705;DHT22;1868;48.918;9.438;2023-12-22T06:50:13;8.00;97.40
3705;DHT22;1868;48.918;9.438;2023-12-22T06:52:46;8.00;97.40
3705;DHT22;1868;48.918;9.438;2023-12-22T06:55:16;8.00;97.40
3705;DHT22;1868;48.918;9.438;2023-12-22T06:57:45;8.00;97.40
3705;DHT22;1868;48.918;9.438;2023-12-22T07:00:17;8.00;97.40
3705;DHT22;1868;48.918;9.438;2023-12-22T07:02:48;8.00;97.40
3705;DHT22;1868;48.918;9.438;2023-12-22T07:05:33;8.10;97.40
3705;DHT22;1868;48.918;9.438;2023-12-22T07:08:05;8.20;97.40
3705;DHT22;1868;48.918;9.438;2023-12-22T07:10:34;8.20;97.40
3705;DHT22;1868;48.918;9.438;2023-12-22T07:13:04;8.30;97.40
3705;DHT22;1868;48.918;9.438;2023-12-22T07:15:33;8.20;97.40
3705;DHT22;1868;48.918;9.438;2023-12-22T07:18:05;8.20;97.40
3705;DHT22;1868;48.918;9.438;2023-12-22T07:20:35;8.30;97.40
3705;DHT22;1868;48.918;9.438;2023-12-22T07:23:04;8.30;97.40
3705;DHT22;1868;48.918;9.438;2023-12-22T07:25:36;8.30;97.40
3705;DHT22;1868;48.918;9.438;2023-12-22T07:28:06;8.20;97.40
3705;DHT22;1868;48.918;9.438;2023-12-22T07:30:35;8.20;97.40
3705;DHT22;1868;48.918;9.438;2023-12-22T07:33:06;8.30;97.40
3705;DHT22;1868;48.918;9.438;2023-12-22T07:35:38;8.30;97.40
3705;DHT22;1868;48.918;9.438;2023-12-22T07:38:08;8.30;97.40
3705;DHT22;1868;48.918;9.438;2023-12-22T07:40:38;8.30;97.40
3705;DHT22;1868;48.918;9.438;2023-12-22T07:43:07;8.30;97.40
3705;DHT22;1868;48.918;9.438;2023-12-22T07:45:37;8.40;97.40
3705;DHT22;1868;48.918;9.438;2023-12-22T07:48:09;8.40;97.40
3705;DHT22;1868;48.918;9.438;2023-12-22T07:50:38;8.40;97.40
3705;DHT22;1868;48.918;9.438;2023-12-22T07:53:07;8.30;97.40
3705;DHT22;1868;48.918;9.438;2023-12-22T07:55:36;8.30;97.40
3705;DHT22;1868;48.918;9.438;2023-12-22T07:58:06;8.30;97.40
3705;DHT22;1868;48.918;9.438;2023-12-22T08:00:36;8.30;97.40
3705;DHT22;1868;48.918;9.438;2023-12-22T08:03:05;8.40;97.40
3705;DHT22;1868;48.918;9.438;2023-12-22T08:05:35;8.40;97.40
3705;DHT22;1868;48.918;9.438;2023-12-22T08:08:06;8.30;97.40
3705;DHT22;1868;48.918;9.438;2023-12-22T08:10:35;8.40;97.40
3705;DHT22;1868;48.918;9.438;2023-12-22T08:13:04;8.40;97.40
3705;DHT22;1868;48.918;9.438;2023-12-22T08:15:33;8.40;97.40
3705;DHT22;1868;48.918;9.438;2023-12-22T08:18:05;8.40;97.40
3705;DHT22;1868;48.918;9.438;2023-12-22T08:20:36;8.40;97.40
3705;DHT22;1868;48.918;9.438;2023-12-22T08:23:09;8.20;97.40
3705;DHT22;1868;48.918;9.438;2023-12-22T08:25:40;8.20;97.40
3705;DHT22;1868;48.918;9.438;2023-12-22T08:28:11;8.10;97.40
3705;DHT22;1868;48.918;9.438;2023-12-22T08:30:41;8.00;97.40
3705;DHT22;1868;48.918;9.438;2023-12-22T08:33:10;7.90;97.40
3705;DHT22;1868;48.918;9.438;2023-12-22T08:35:40;7.90;97.40
3705;DHT22;1868;48.918;9.438;2023-12-22T08:38:09;7.80;97.40
3705;DHT22;1868;48.918;9.438;2023-12-22T08:40:44;7.80;97.40
3705;DHT22;1868;48.918;9.438;2023-12-22T08:43:13;7.80;97.40
3705;DHT22;1868;48.918;9.438;2023-12-22T08:45:42;7.80;97.40
3705;DHT22;1868;48.918;9.438;2023-12-22T08:48:11;7.80;97.40
3705;DHT22;1868;48.918;9.438;2023-12-22T08:50:44;7.80;97.40
3705;DHT22;1868;48.918;9.438;2023-12-22T08:53:14;7.80;97.40
3705;DHT22;1868;48.918;9.438;2023-12-22T08:55:42;7.70;97.40
3705;DHT22;1868;48.918;9.438;2023-12-22T08:58:11;7.80;97.40
3705;DHT22;1868;48.918;9.438;2023-12-22T09:00:41;7.80;97.40
3705;DHT22;1868;48.918;9.438;2023-12-22T09:03:10;7.90;97.40
3705;DHT22;1868;48.918;9.438;2023-12-22T09:05:39;7.80;97.40
3705;DHT22;1868;48.918;9.438;2023-12-22T09:08:11;7.90;97.40
3705;DHT22;1868;48.918;9.438;2023-12-22T09:10:40;7.80;97.40
3705;DHT22;1868;48.918;9.438;2023-12-22T09:13:09;7.80;97.40
3705;DHT22;1868;48.918;9.438;2023-12-22T09:15:38;7.80;97.40
3705;DHT22;1868;48.918;9.438;2023-12-22T09:18:08;7.80;97.40
3705;DHT22;1868;48.918;9.438;2023-12-22T09:20:37;7.80;97.40
3705;DHT22;1868;48.918;9.438;2023-12-22T09:23:07;7.70;97.40
3705;DHT22;1868;48.918;9.438;2023-12-22T09:25:39;7.70;97.40
3705;DHT22;1868;48.918;9.438;2023-12-22T09:28:07;7.70;97.40
3705;DHT22;1868;48.918;9.438;2023-12-22T09:30:37;7.70;97.40
3705;DHT22;1868;48.918;9.438;2023-12-22T09:33:06;7.60;97.40
3705;DHT22;1868;48.918;9.438;2023-12-22T09:35:34;7.70;97.40
3705;DHT22;1868;48.918;9.438;2023-12-22T09:38:04;7.70;97.40
3705;DHT22;1868;48.918;9.438;2023-12-22T09:40:33;7.70;97.40
3705;DHT22;1868;48.918;9.438;2023-12-22T09:43:06;7.60;97.40
3705;DHT22;1868;48.918;9.438;2023-12-22T09:45:36;7.70;97.40
3705;DHT22;1868;48.918;9.438;2023-12-22T09:48:08;7.80;97.40
3705;DHT22;1868;48.918;9.438;2023-12-22T09:50:38;7.90;97.40
3705;DHT22;1868;48.918;9.438;2023-12-22T09:53:09;7.90;97.40
3705;DHT22;1868;48.918;9.438;2023-12-22T09:55:42;8.00;97.40
3705;DHT22;1868;48.918;9.438;2023-12-22T09:58:14;8.10;97.40
3705;DHT22;1868;48.918;9.438;2023-12-22T10:00:44;8.10;97.40
3705;DHT22;1868;48.918;9.438;2023-12-22T10:03:16;8.20;97.40
3705;DHT22;1868;48.918;9.438;2023-12-22T10:05:46;8.20;97.40
3705;DHT22;1868;48.918;9.438;2023-12-22T10:08:17;8.20;97.40
3705;DHT22;1868;48.918;9.438;2023-12-22T10:10:47;8.20;97.40
3705;DHT22;1868;48.918;9.438;2023-12-22T10:13:21;8.30;97.40
3705;DHT22;1868;48.918;9.438;2023-12-22T10:15:50;8.40;97.40
3705;DHT22;1868;48.918;9.438;2023-12-22T10:18:22;8.40;97.40
3705;DHT22;1868;48.918;9.438;2023-12-22T10:20:51;8.50;97.40
3705;DHT22;1868;48.918;9.438;2023-12-22T10:23:20;8.50;97.40
3705;DHT22;1868;48.918;9.438;2023-12-22T10:25:49;8.50;97.40
3705;DHT22;1868;48.918;9.438;2023-12-22T10:28:20;8.50;97.40
3705;DHT22;1868;48.918;9.438;2023-12-22T10:30:53;8.50;97.40
3705;DHT22;1868;48.918;9.438;2023-12-22T10:33:25;8.60;97.40
3705;DHT22;1868;48.918;9.438;2023-12-22T10:35:54;8.60;97.40
3705;DHT22;1868;48.918;9.438;2023-12-22T10:38:26;8.70;97.40
3705;DHT22;1868;48.918;9.438;2023-12-22T10:40:59;8.70;97.40
3705;DHT22;1868;48.918;9.438;2023-12-22T10:43:30;8.70;97.40
3705;DHT22;1868;48.918;9.438;2023-12-22T10:46:06;8.70;97.40
3705;DHT22;1868;48.918;9.438;2023-12-22T10:48:39;8.70;97.40
3705;DHT22;1868;48.918;9.438;2023-12-22T10:51:11;8.70;97.40
3705;DHT22;1868;48.918;9.438;2023-12-22T10:53:41;8.70;97.40
3705;DHT22;1868;48.918;9.438;2023-12-22T10:56:11;8.70;97.40
3705;DHT22;1868;48.918;9.438;2023-12-22T10:58:42;8.70;97.40
3705;DHT22;1868;48.918;9.438;2023-12-22T11:01:14;8.80;97.40
3705;DHT22;1868;48.918;9.438;2023-12-22T11:03:44;8.70;97.40
3705;DHT22;1868;48.918;9.438;2023-12-22T11:06:19;8.80;97.40
3705;DHT22;1868;48.918;9.438;2023-12-22T11:08:51;8.70;97.40
3705;DHT22;1868;48.918;9.438;2023-12-22T11:11:26;8.80;97.40
3705;DHT22;1868;48.918;9.438;2023-12-22T11:13:59;8.90;97.40
3705;DHT22;1868;48.918;9.438;2023-12-22T11:16:29;8.90;97.40
3705;DHT22;1868;48.918;9.438;2023-12-22T11:19:01;8.80;97.40
3705;DHT22;1868;48.918;9.438;2023-12-22T11:21:32;8.80;97.40
3705;DHT22;1868;48.918;9.438;2023-12-22T11:24:02;8.90;97.40
3705;DHT22;1868;48.918;9.438;2023-12-22T11:26:32;9.00;97.40
3705;DHT22;1868;48.918;9.438;2023-12-22T11:29:03;9.00;97.40
3705;DHT22;1868;48.918;9.438;2023-12-22T11:31:35;9.00;97.40
3705;DHT22;1868;48.918;9.438;2023-12-22T11:34:07;9.10;97.40
3705;DHT22;1868;48.918;9.438;2023-12-22T11:36:45;9.10;97.40
3705;DHT22;1868;48.918;9.438;2023-12-22T11:39:15;9.00;97.40
3705;DHT22;1868;48.918;9.438;2023-12-22T11:41:45;9.10;97.40
3705;DHT22;1868;48.918;9.438;2023-12-22T11:44:17;9.10;97.40
3705;DHT22;1868;48.918;9.438;2023-12-22T11:46:48;9.10;97.40
3705;DHT22;1868;48.918;9.438;2023-12-22T11:49:18;9.10;97.40
3705;DHT22;1868;48.918;9.438;2023-12-22T11:51:47;9.10;97.40
3705;DHT22;1868;48.918;9.438;2023-12-22T11:54:44;9.30;97.40
3705;DHT22;1868;48.918;9.438;2023-12-22T11:57:32;9.10;97.40
3705;DHT22;1868;48.918;9.438;2023-12-22T12:00:06;9.10;97.40
3705;DHT22;1868;48.918;9.438;2023-12-22T12:02:40;9.20;97.40
3705;DHT22;1868;48.918;9.438;2023-12-22T12:05:11;9.20;97.40
3705;DHT22;1868;48.918;9.438;2023-12-22T12:07:43;9.10;97.40
3705;DHT22;1868;48.918;9.438;2023-12-22T12:10:36;9.00;97.40
3705;DHT22;1868;48.918;9.438;2023-12-22T12:13:22;9.10;97.40
3705;DHT22;1868;48.918;9.438;2023-12-22T12:15:56;9.10;97.40
3705;DHT22;1868;48.918;9.438;2023-12-22T12:18:28;9.10;97.40
3705;DHT22;1868;48.918;9.438;2023-12-22T12:20:58;9.00;97.40
3705;DHT22;1868;48.918;9.438;2023-12-22T12:23:27;9.00;97.40
3705;DHT22;1868;48.918;9.438;2023-12-22T12:25:57;9.00;97.40
3705;DHT22;1868;48.918;9.438;2023-12-22T12:28:26;9.00;97.40
3705;DHT22;1868;48.918;9.438;2023-12-22T12:31:00;9.00;97.40
3705;DHT22;1868;48.918;9.438;2023-12-22T12:33:32;8.90;97.40
3705;DHT22;1868;48.918;9.438;2023-12-22T12:36:01;9.00;97.40
3705;DHT22;1868;48.918;9.438;2023-12-22T12:38:48;9.00;97.40
3705;DHT22;1868;48.918;9.438;2023-12-22T12:41:29;9.00;97.40
3705;DHT22;1868;48.918;9.438;2023-12-22T12:44:04;8.90;97.40
3705;DHT22;1868;48.918;9.438;2023-12-22T12:46:35;8.80;97.40
3705;DHT22;1868;48.918;9.438;2023-12-22T12:49:08;8.80;97.40
3705;DHT22;1868;48.918;9.438;2023-12-22T12:51:47;8.80;97.40
3705;DHT22;1868;48.918;9.438;2023-12-22T12:54:17;8.80;97.40
3705;DHT22;1868;48.918;9.438;2023-12-22T12:56:46;8.80;97.40
3705;DHT22;1868;48.918;9.438;2023-12-22T12:59:16;8.70;97.40
3705;DHT22;1868;48.918;9.438;2023-12-22T13:01:49;8.70;97.40
3705;DHT22;1868;48.918;9.438;2023-12-22T13:04:19;8.70;97.40
3705;DHT22;1868;48.918;9.438;2023-12-22T13:06:50;8.70;97.40
3705;DHT22;1868;48.918;9.438;2023-12-22T13:09:31;8.70;97.40
3705;DHT22;1868;48.918;9.438;2023-12-22T13:12:03;8.70;97.40
3705;DHT22;1868;48.918;9.438;2023-12-22T13:14:35;8.70;97.40
3705;DHT22;1868;48.918;9.438;2023-12-22T13:17:11;8.70;97.40
3705;DHT22;1868;48.918;9.438;2023-12-22T13:19:42;8.80;97.40
3705;DHT22;1868;48.918;9.438;2023-12-22T13:22:11;8.80;97.40
3705;DHT22;1868;48.918;9.438;2023-12-22T13:24:41;8.90;97.40
3705;DHT22;1868;48.918;9.438;2023-12-22T13:27:11;9.10;97.40
3705;DHT22;1868;48.918;9.438;2023-12-22T13:29:44;9.20;97.40
3705;DHT22;1868;48.918;9.438;2023-12-22T13:32:20;9.30;97.40
3705;DHT22;1868;48.918;9.438;2023-12-22T13:34:53;9.30;97.40
3705;DHT22;1868;48.918;9.438;2023-12-22T13:37:24;9.30;97.40
3705;DHT22;1868;48.918;9.438;2023-12-22T13:39:59;9.30;97.40
3705;DHT22;1868;48.918;9.438;2023-12-22T13:42:28;9.40;97.40
3705;DHT22;1868;48.918;9.438;2023-12-22T13:44:57;9.40;97.40
3705;DHT22;1868;48.918;9.438;2023-12-22T13:47:30;9.30;97.40
3705;DHT22;1868;48.918;9.438;2023-12-22T13:49:59;9.30;97.40
3705;DHT22;1868;48.918;9.438;2023-12-22T13:52:30;9.30;97.40
3705;DHT22;1868;48.918;9.438;2023-12-22T13:55:09;9.40;97.40
3705;DHT22;1868;48.918;9.438;2023-12-22T13:57:39;9.40;97.40
3705;DHT22;1868;48.918;9.438;2023-12-22T14:00:27;9.40;97.40
3705;DHT22;1868;48.918;9.438;2023-12-22T14:03:01;9.50;97.40
3705;DHT22;1868;48.918;9.438;2023-12-22T14:05:30;9.40;97.40
3705;DHT22;1868;48.918;9.438;2023-12-22T14:08:01;9.40;97.40
3705;DHT22;1868;48.918;9.438;2023-12-22T14:10:31;9.50;97.40
3705;DHT22;1868;48.918;9.438;2023-12-22T14:13:00;9.60;97.40
3705;DHT22;1868;48.918;9.438;2023-12-22T14:15:30;9.60;97.40
3705;DHT22;1868;48.918;9.438;2023-12-22T14:18:12;9.60;97.40
3705;DHT22;1868;48.918;9.438;2023-12-22T14:20:42;9.70;97.40
3705;DHT22;1868;48.918;9.438;2023-12-22T14:23:12;9.70;97.40
3705;DHT22;1868;48.918;9.438;2023-12-22T14:25:43;9.70;97.40
3705;DHT22;1868;48.918;9.438;2023-12-22T14:28:13;9.70;97.40
3705;DHT22;1868;48.918;9.438;2023-12-22T14:30:44;9.70;97.40
3705;DHT22;1868;48.918;9.438;2023-12-22T14:33:15;9.70;97.40
3705;DHT22;1868;48.918;9.438;2023-12-22T14:35:44;9.60;97.40
3705;DHT22;1868;48.918;9.438;2023-12-22T14:38:13;9.70;97.40
3705;DHT22;1868;48.918;9.438;2023-12-22T14:40:42;9.70;97.40
3705;DHT22;1868;48.918;9.438;2023-12-22T14:43:12;9.70;97.40
3705;DHT22;1868;48.918;9.438;2023-12-22T14:45:41;9.70;97.40
3705;DHT22;1868;48.918;9.438;2023-12-22T14:48:10;9.80;97.40
3705;DHT22;1868;48.918;9.438;2023-12-22T14:50:40;9.70;97.40
3705;DHT22;1868;48.918;9.438;2023-12-22T14:53:09;9.80;97.40
3705;DHT22;1868;48.918;9.438;2023-12-22T14:55:40;9.80;97.40
3705;DHT22;1868;48.918;9.438;2023-12-22T14:58:10;9.90;97.40
3705;DHT22;1868;48.918;9.438;2023-12-22T15:00:40;9.80;97.40
3705;DHT22;1868;48.918;9.438;2023-12-22T15:03:08;9.80;97.40
3705;DHT22;1868;48.918;9.438;2023-12-22T15:05:37;9.90;97.40
3705;DHT22;1868;48.918;9.438;2023-12-22T15:08:08;9.90;97.40
3705;DHT22;1868;48.918;9.438;2023-12-22T15:10:37;10.00;97.40
3705;DHT22;1868;48.918;9.438;2023-12-22T15:13:06;10.00;97.40
3705;DHT22;1868;48.918;9.438;2023-12-22T15:15:36;10.00;97.40
3705;DHT22;1868;48.918;9.438;2023-12-22T15:18:05;10.00;97.40
3705;DHT22;1868;48.918;9.438;2023-12-22T15:20:39;10.10;97.40
3705;DHT22;1868;48.918;9.438;2023-12-22T15:23:10;10.00;97.40
3705;DHT22;1868;48.918;9.438;2023-12-22T15:25:40;10.00;97.40
3705;DHT22;1868;48.918;9.438;2023-12-22T15:28:09;10.10;97.40
3705;DHT22;1868;48.918;9.438;2023-12-22T15:30:38;10.00;97.40
3705;DHT22;1868;48.918;9.438;2023-12-22T15:33:08;10.00;97.40
3705;DHT22;1868;48.918;9.438;2023-12-22T15:35:38;10.00;97.40
3705;DHT22;1868;48.918;9.438;2023-12-22T15:38:09;10.00;97.40
3705;DHT22;1868;48.918;9.438;2023-12-22T15:40:38;9.90;97.40
3705;DHT22;1868;48.918;9.438;2023-12-22T15:43:08;10.00;97.40
3705;DHT22;1868;48.918;9.438;2023-12-22T15:45:38;10.10;97.40
3705;DHT22;1868;48.918;9.438;2023-12-22T15:48:07;10.00;97.40
3705;DHT22;1868;48.918;9.438;2023-12-22T15:50:36;10.00;97.40
3705;DHT22;1868;48.918;9.438;2023-12-22T15:53:05;10.00;97.40
3705;DHT22;1868;48.918;9.438;2023-12-22T15:55:35;10.00;97.40
3705;DHT22;1868;48.918;9.438;2023-12-22T15:58:04;10.00;97.40
3705;DHT22;1868;48.918;9.438;2023-12-22T16:00:33;10.00;97.40
3705;DHT22;1868;48.918;9.438;2023-12-22T16:03:02;10.00;97.40
3705;DHT22;1868;48.918;9.438;2023-12-22T16:05:31;10.00;97.40
3705;DHT22;1868;48.918;9.438;2023-12-22T16:08:00;10.00;97.40
3705;DHT22;1868;48.918;9.438;2023-12-22T16:10:29;10.10;97.40
3705;DHT22;1868;48.918;9.438;2023-12-22T16:13:01;10.10;97.40
3705;DHT22;1868;48.918;9.438;2023-12-22T16:15:31;9.90;97.40
3705;DHT22;1868;48.918;9.438;2023-12-22T16:18:02;10.00;97.40
3705;DHT22;1868;48.918;9.438;2023-12-22T16:20:33;10.00;97.40
3705;DHT22;1868;48.918;9.438;2023-12-22T16:23:04;10.10;97.40
3705;DHT22;1868;48.918;9.438;2023-12-22T16:25:34;10.10;97.40
3705;DHT22;1868;48.918;9.438;2023-12-22T16:28:10;10.10;97.40
3705;DHT22;1868;48.918;9.438;2023-12-22T16:30:38;10.00;97.40
3705;DHT22;1868;48.918;9.438;2023-12-22T16:33:07;10.10;97.40
3705;DHT22;1868;48.918;9.438;2023-12-22T16:35:36;10.10;97.40
3705;DHT22;1868;48.918;9.438;2023-12-22T16:38:08;10.10;97.40
3705;DHT22;1868;48.918;9.438;2023-12-22T16:40:37;10.10;97.40